sensor_id;sensor_type;location;lat;lon;timestamp;P1;durP1;ratioP1;P2;durP2;ratioP2
82322;SDS011;71929;47.444;18.898;2023-07-31T16:51:43;3.40;;;0.98;;
82322;SDS011;71929;47.444;18.898;2023-07-31T16:54:08;2.55;;;1.00;;
82322;SDS011;71929;47.444;18.898;2023-07-31T16:56:33;4.43;;;1.00;;
82322;SDS011;71929;47.444;18.898;2023-07-31T16:58:59;3.43;;;0.90;;
82322;SDS011;71929;47.444;18.898;2023-07-31T17:01:24;3.08;;;1.10;;
82322;SDS011;71929;47.444;18.898;2023-07-31T17:03:55;3.40;;;0.98;;
82322;SDS011;71929;47.444;18.898;2023-07-31T17:06:20;4.82;;;1.20;;
82322;SDS011;71929;47.444;18.898;2023-07-31T17:08:46;3.47;;;1.00;;
82322;SDS011;71929;47.444;18.898;2023-07-31T17:11:11;6.67;;;0.90;;
82322;SDS011;71929;47.444;18.898;2023-07-31T17:13:36;2.70;;;0.98;;
82322;SDS011;71929;47.444;18.898;2023-07-31T17:16:01;3.97;;;1.03;;
82322;SDS011;71929;47.444;18.898;2023-07-31T17:18:27;2.83;;;1.00;;
82322;SDS011;71929;47.444;18.898;2023-07-31T17:20:52;2.80;;;1.00;;
82322;SDS011;71929;47.444;18.898;2023-07-31T17:23:17;5.20;;;1.03;;
82322;SDS011;71929;47.444;18.898;2023-07-31T17:25:43;3.20;;;1.10;;
82322;SDS011;71929;47.444;18.898;2023-07-31T17:28:08;4.00;;;0.80;;
82322;SDS011;71929;47.444;18.898;2023-07-31T17:30:33;5.30;;;0.90;;
82322;SDS011;71929;47.444;18.898;2023-07-31T17:32:58;2.47;;;0.90;;
82322;SDS011;71929;47.444;18.898;2023-07-31T17:35:24;2.75;;;1.00;;
82322;SDS011;71929;47.444;18.898;2023-07-31T17:37:49;2.45;;;0.93;;
82322;SDS011;71929;47.444;18.898;2023-07-31T17:40:14;2.53;;;0.87;;
82322;SDS011;71929;47.444;18.898;2023-07-31T17:42:40;2.60;;;0.87;;
82322;SDS011;71929;47.444;18.898;2023-07-31T17:45:05;2.13;;;0.77;;
82322;SDS011;71929;47.444;18.898;2023-07-31T17:47:31;2.20;;;0.80;;
82322;SDS011;71929;47.444;18.898;2023-07-31T17:49:56;2.50;;;1.00;;
82322;SDS011;71929;47.444;18.898;2023-07-31T17:52:22;2.38;;;0.98;;
82322;SDS011;71929;47.444;18.898;2023-07-31T17:54:47;2.60;;;0.80;;
82322;SDS011;71929;47.444;18.898;2023-07-31T17:57:16;2.00;;;0.70;;
82322;SDS011;71929;47.444;18.898;2023-07-31T17:59:41;2.27;;;0.83;;
82322;SDS011;71929;47.444;18.898;2023-07-31T18:02:08;3.67;;;0.90;;
82322;SDS011;71929;47.444;18.898;2023-07-31T18:04:33;2.17;;;0.82;;
82322;SDS011;71929;47.444;18.898;2023-07-31T18:06:58;2.10;;;0.80;;
82322;SDS011;71929;47.444;18.898;2023-07-31T18:09:24;2.40;;;0.70;;
82322;SDS011;71929;47.444;18.898;2023-07-31T18:11:49;3.67;;;0.85;;
82322;SDS011;71929;47.444;18.898;2023-07-31T18:14:14;3.70;;;1.10;;
82322;SDS011;71929;47.444;18.898;2023-07-31T18:16:40;2.47;;;0.85;;
82322;SDS011;71929;47.444;18.898;2023-07-31T18:19:05;4.05;;;0.98;;
82322;SDS011;71929;47.444;18.898;2023-07-31T18:21:30;2.80;;;0.75;;
82322;SDS011;71929;47.444;18.898;2023-07-31T18:23:58;3.72;;;0.80;;
82322;SDS011;71929;47.444;18.898;2023-07-31T18:26:24;2.00;;;0.75;;
82322;SDS011;71929;47.444;18.898;2023-07-31T18:28:50;6.15;;;1.20;;
82322;SDS011;71929;47.444;18.898;2023-07-31T18:31:15;3.42;;;1.20;;
82322;SDS011;71929;47.444;18.898;2023-07-31T18:33:41;3.08;;;0.88;;
82322;SDS011;71929;47.444;18.898;2023-07-31T18:36:07;2.35;;;0.93;;
82322;SDS011;71929;47.444;18.898;2023-07-31T18:38:32;2.92;;;1.00;;
82322;SDS011;71929;47.444;18.898;2023-07-31T18:40:58;2.25;;;0.80;;
82322;SDS011;71929;47.444;18.898;2023-07-31T18:43:24;2.67;;;1.10;;
82322;SDS011;71929;47.444;18.898;2023-07-31T18:45:49;3.88;;;2.15;;
82322;SDS011;71929;47.444;18.898;2023-07-31T18:48:15;2.72;;;1.50;;
82322;SDS011;71929;47.444;18.898;2023-07-31T18:50:40;3.03;;;1.50;;
82322;SDS011;71929;47.444;18.898;2023-07-31T18:53:09;3.97;;;1.40;;
82322;SDS011;71929;47.444;18.898;2023-07-31T18:55:35;3.15;;;1.50;;
82322;SDS011;71929;47.444;18.898;2023-07-31T18:58:00;3.07;;;1.10;;
82322;SDS011;71929;47.444;18.898;2023-07-31T19:00:25;3.47;;;1.40;;
82322;SDS011;71929;47.444;18.898;2023-07-31T19:02:50;3.50;;;1.10;;
82322;SDS011;71929;47.444;18.898;2023-07-31T19:05:16;2.50;;;0.90;;
82322;SDS011;71929;47.444;18.898;2023-07-31T19:07:43;2.63;;;1.10;;
82322;SDS011;71929;47.444;18.898;2023-07-31T19:10:08;3.15;;;1.08;;
82322;SDS011;71929;47.444;18.898;2023-07-31T19:12:34;4.28;;;1.05;;
82322;SDS011;71929;47.444;18.898;2023-07-31T19:15:00;3.28;;;1.33;;
82322;SDS011;71929;47.444;18.898;2023-07-31T19:17:25;3.43;;;1.30;;
82322;SDS011;71929;47.444;18.898;2023-07-31T19:19:50;3.20;;;1.05;;
82322;SDS011;71929;47.444;18.898;2023-07-31T19:22:15;3.33;;;1.20;;
82322;SDS011;71929;47.444;18.898;2023-07-31T19:24:41;3.25;;;1.25;;
82322;SDS011;71929;47.444;18.898;2023-07-31T19:27:06;2.92;;;1.40;;
82322;SDS011;71929;47.444;18.898;2023-07-31T19:29:32;3.92;;;1.73;;
82322;SDS011;71929;47.444;18.898;2023-07-31T19:31:57;3.63;;;1.13;;
82322;SDS011;71929;47.444;18.898;2023-07-31T19:34:22;4.03;;;1.83;;
82322;SDS011;71929;47.444;18.898;2023-07-31T19:36:48;3.10;;;1.38;;
82322;SDS011;71929;47.444;18.898;2023-07-31T19:39:14;3.85;;;2.00;;
82322;SDS011;71929;47.444;18.898;2023-07-31T19:41:39;3.55;;;1.58;;
82322;SDS011;71929;47.444;18.898;2023-07-31T19:44:06;3.45;;;1.55;;
82322;SDS011;71929;47.444;18.898;2023-07-31T19:46:32;3.83;;;1.50;;
82322;SDS011;71929;47.444;18.898;2023-07-31T19:48:59;5.93;;;1.65;;
82322;SDS011;71929;47.444;18.898;2023-07-31T19:51:25;4.22;;;1.50;;
82322;SDS011;71929;47.444;18.898;2023-07-31T19:53:50;5.30;;;1.47;;
82322;SDS011;71929;47.444;18.898;2023-07-31T19:56:15;4.60;;;1.90;;
82322;SDS011;71929;47.444;18.898;2023-07-31T19:58:41;3.07;;;1.40;;
82322;SDS011;71929;47.444;18.898;2023-07-31T20:01:06;4.75;;;1.85;;
82322;SDS011;71929;47.444;18.898;2023-07-31T20:03:31;7.60;;;1.80;;
82322;SDS011;71929;47.444;18.898;2023-07-31T20:05:57;6.50;;;1.95;;
82322;SDS011;71929;47.444;18.898;2023-07-31T20:08:22;4.37;;;1.80;;
82322;SDS011;71929;47.444;18.898;2023-07-31T20:10:47;5.03;;;1.90;;
82322;SDS011;71929;47.444;18.898;2023-07-31T20:13:13;7.25;;;1.70;;
82322;SDS011;71929;47.444;18.898;2023-07-31T20:15:38;4.57;;;1.80;;
82322;SDS011;71929;47.444;18.898;2023-07-31T20:18:03;4.10;;;1.77;;
82322;SDS011;71929;47.444;18.898;2023-07-31T20:20:29;3.97;;;1.90;;
82322;SDS011;71929;47.444;18.898;2023-07-31T20:22:54;4.70;;;1.70;;
82322;SDS011;71929;47.444;18.898;2023-07-31T20:25:20;5.10;;;1.80;;
82322;SDS011;71929;47.444;18.898;2023-07-31T20:27:46;3.97;;;1.58;;
82322;SDS011;71929;47.444;18.898;2023-07-31T20:30:11;4.72;;;1.80;;
82322;SDS011;71929;47.444;18.898;2023-07-31T20:32:36;3.60;;;1.63;;
82322;SDS011;71929;47.444;18.898;2023-07-31T20:35:02;6.83;;;1.70;;
82322;SDS011;71929;47.444;18.898;2023-07-31T20:37:27;3.97;;;1.83;;
82322;SDS011;71929;47.444;18.898;2023-07-31T20:39:55;4.50;;;1.45;;
82322;SDS011;71929;47.444;18.898;2023-07-31T20:42:20;4.65;;;1.55;;
82322;SDS011;71929;47.444;18.898;2023-07-31T20:44:48;7.47;;;2.33;;
82322;SDS011;71929;47.444;18.898;2023-07-31T20:47:13;4.07;;;1.53;;
82322;SDS011;71929;47.444;18.898;2023-07-31T20:49:39;4.35;;;1.40;;
82322;SDS011;71929;47.444;18.898;2023-07-31T20:52:04;3.53;;;1.40;;
82322;SDS011;71929;47.444;18.898;2023-07-31T20:54:30;4.07;;;1.50;;
82322;SDS011;71929;47.444;18.898;2023-07-31T20:56:56;5.30;;;1.50;;
82322;SDS011;71929;47.444;18.898;2023-07-31T20:59:22;3.78;;;1.63;;
82322;SDS011;71929;47.444;18.898;2023-07-31T21:01:47;4.25;;;1.13;;
82322;SDS011;71929;47.444;18.898;2023-07-31T21:04:13;5.15;;;2.33;;
82322;SDS011;71929;47.444;18.898;2023-07-31T21:06:39;3.10;;;1.40;;
82322;SDS011;71929;47.444;18.898;2023-07-31T21:09:04;2.95;;;1.10;;
82322;SDS011;71929;47.444;18.898;2023-07-31T21:11:30;5.07;;;1.50;;
82322;SDS011;71929;47.444;18.898;2023-07-31T21:13:57;3.05;;;1.40;;
82322;SDS011;71929;47.444;18.898;2023-07-31T21:16:23;3.30;;;1.30;;
82322;SDS011;71929;47.444;18.898;2023-07-31T21:18:49;2.45;;;1.13;;
82322;SDS011;71929;47.444;18.898;2023-07-31T21:21:15;3.95;;;1.52;;
82322;SDS011;71929;47.444;18.898;2023-07-31T21:23:40;2.85;;;1.23;;
82322;SDS011;71929;47.444;18.898;2023-07-31T21:26:06;3.83;;;1.40;;
82322;SDS011;71929;47.444;18.898;2023-07-31T21:28:31;2.83;;;1.27;;
82322;SDS011;71929;47.444;18.898;2023-07-31T21:30:56;2.30;;;0.93;;
82322;SDS011;71929;47.444;18.898;2023-07-31T21:33:23;2.50;;;0.95;;
82322;SDS011;71929;47.444;18.898;2023-07-31T21:35:50;2.83;;;1.17;;
82322;SDS011;71929;47.444;18.898;2023-07-31T21:38:15;5.22;;;1.35;;
82322;SDS011;71929;47.444;18.898;2023-07-31T21:40:41;3.00;;;1.02;;
82322;SDS011;71929;47.444;18.898;2023-07-31T21:43:06;2.83;;;1.35;;
82322;SDS011;71929;47.444;18.898;2023-07-31T21:45:31;3.03;;;1.03;;
82322;SDS011;71929;47.444;18.898;2023-07-31T21:47:57;3.80;;;1.20;;
82322;SDS011;71929;47.444;18.898;2023-07-31T21:50:23;3.60;;;1.08;;
82322;SDS011;71929;47.444;18.898;2023-07-31T21:52:48;3.92;;;1.48;;
82322;SDS011;71929;47.444;18.898;2023-07-31T21:55:14;3.13;;;1.23;;
82322;SDS011;71929;47.444;18.898;2023-07-31T21:57:40;3.00;;;1.33;;
82322;SDS011;71929;47.444;18.898;2023-07-31T22:00:05;3.05;;;1.17;;
82322;SDS011;71929;47.444;18.898;2023-07-31T22:02:32;2.75;;;1.13;;
82322;SDS011;71929;47.444;18.898;2023-07-31T22:04:57;3.55;;;1.10;;
82322;SDS011;71929;47.444;18.898;2023-07-31T22:07:22;2.97;;;1.23;;
82322;SDS011;71929;47.444;18.898;2023-07-31T22:09:48;2.70;;;1.10;;
82322;SDS011;71929;47.444;18.898;2023-07-31T22:12:13;4.07;;;1.65;;
82322;SDS011;71929;47.444;18.898;2023-07-31T22:14:38;2.33;;;1.10;;
82322;SDS011;71929;47.444;18.898;2023-07-31T22:17:04;2.27;;;0.90;;
82322;SDS011;71929;47.444;18.898;2023-07-31T22:19:29;3.70;;;1.13;;
82322;SDS011;71929;47.444;18.898;2023-07-31T22:21:54;3.13;;;1.10;;
82322;SDS011;71929;47.444;18.898;2023-07-31T22:24:21;3.97;;;1.20;;
82322;SDS011;71929;47.444;18.898;2023-07-31T22:26:47;3.30;;;1.00;;
82322;SDS011;71929;47.444;18.898;2023-07-31T22:29:12;3.53;;;1.30;;
82322;SDS011;71929;47.444;18.898;2023-07-31T22:31:38;3.30;;;1.00;;
82322;SDS011;71929;47.444;18.898;2023-07-31T22:34:03;3.07;;;1.00;;
82322;SDS011;71929;47.444;18.898;2023-07-31T22:36:28;2.63;;;1.07;;
82322;SDS011;71929;47.444;18.898;2023-07-31T22:38:53;2.70;;;1.10;;
82322;SDS011;71929;47.444;18.898;2023-07-31T22:41:19;2.17;;;1.02;;
82322;SDS011;71929;47.444;18.898;2023-07-31T22:43:44;4.93;;;0.95;;
82322;SDS011;71929;47.444;18.898;2023-07-31T22:46:09;2.53;;;1.08;;
82322;SDS011;71929;47.444;18.898;2023-07-31T22:48:35;2.73;;;1.33;;
82322;SDS011;71929;47.444;18.898;2023-07-31T22:51:00;3.40;;;1.35;;
82322;SDS011;71929;47.444;18.898;2023-07-31T22:53:26;2.90;;;0.93;;
82322;SDS011;71929;47.444;18.898;2023-07-31T22:55:51;3.13;;;1.20;;
82322;SDS011;71929;47.444;18.898;2023-07-31T22:58:16;3.47;;;1.60;;
82322;SDS011;71929;47.444;18.898;2023-07-31T23:00:42;4.20;;;2.00;;
82322;SDS011;71929;47.444;18.898;2023-07-31T23:03:07;6.07;;;2.00;;
82322;SDS011;71929;47.444;18.898;2023-07-31T23:05:32;4.37;;;2.23;;
82322;SDS011;71929;47.444;18.898;2023-07-31T23:07:57;3.93;;;1.73;;
82322;SDS011;71929;47.444;18.898;2023-07-31T23:10:23;4.85;;;2.03;;
82322;SDS011;71929;47.444;18.898;2023-07-31T23:12:48;4.35;;;1.60;;
82322;SDS011;71929;47.444;18.898;2023-07-31T23:15:14;5.00;;;1.88;;
82322;SDS011;71929;47.444;18.898;2023-07-31T23:17:39;3.65;;;1.40;;
82322;SDS011;71929;47.444;18.898;2023-07-31T23:20:04;3.75;;;1.33;;
82322;SDS011;71929;47.444;18.898;2023-07-31T23:22:30;3.10;;;1.42;;
82322;SDS011;71929;47.444;18.898;2023-07-31T23:24:56;3.10;;;1.33;;
82322;SDS011;71929;47.444;18.898;2023-07-31T23:27:22;3.87;;;1.40;;
82322;SDS011;71929;47.444;18.898;2023-07-31T23:29:47;2.60;;;1.40;;
82322;SDS011;71929;47.444;18.898;2023-07-31T23:32:13;3.40;;;1.10;;
82322;SDS011;71929;47.444;18.898;2023-07-31T23:34:40;4.35;;;1.40;;
82322;SDS011;71929;47.444;18.898;2023-07-31T23:37:06;2.30;;;1.10;;
82322;SDS011;71929;47.444;18.898;2023-07-31T23:39:32;3.63;;;1.30;;
82322;SDS011;71929;47.444;18.898;2023-07-31T23:41:57;3.20;;;1.42;;
82322;SDS011;71929;47.444;18.898;2023-07-31T23:44:22;2.90;;;1.45;;
82322;SDS011;71929;47.444;18.898;2023-07-31T23:46:48;3.65;;;1.50;;
82322;SDS011;71929;47.444;18.898;2023-07-31T23:49:13;3.85;;;1.33;;
82322;SDS011;71929;47.444;18.898;2023-07-31T23:51:40;5.35;;;1.52;;
82322;SDS011;71929;47.444;18.898;2023-07-31T23:54:06;5.00;;;1.70;;
82322;SDS011;71929;47.444;18.898;2023-07-31T23:56:32;3.13;;;1.42;;
82322;SDS011;71929;47.444;18.898;2023-07-31T23:58:58;2.53;;;1.17;;
